Time;durP1;ratioP1;P1;durP2;ratioP2;P2;SDS_P1;SDS_P2;PMS_P1;PMS_P2;Temp;Humidity;BMP_temperature;BMP_pressure;BME280_temperature;BME280_humidity;BME280_pressure;Samples;Min_cycle;Max_cycle;Signal;HPM_P1;HPM_P2
2021/01/29 00:01:11;;;;;;;2.20;2.10;;;7.90;99.90;;;8.51;100.00;96728.31;5204884;28;20236;-75
2021/01/29 00:03:43;;;;;;;2.15;2.05;;;7.80;99.90;;;8.48;100.00;96725.63;5205433;28;20221;-75
2021/01/29 00:06:15;;;;;;;2.10;2.00;;;7.80;99.90;;;8.47;100.00;96731.53;5205171;28;20650;-75
2021/01/29 00:08:48;;;;;;;2.58;2.38;;;7.80;99.90;;;8.44;100.00;96723.75;5221840;28;20228;-74
2021/01/29 00:11:21;;;;;;;2.35;2.15;;;7.80;99.90;;;8.42;100.00;96727.88;5226135;28;20231;-75
2021/01/29 00:13:53;;;;;;;2.50;2.28;;;7.80;99.90;;;8.47;100.00;96716.25;5223532;28;20228;-75
2021/01/29 00:16:25;;;;;;;2.25;2.15;;;7.80;99.90;;;8.45;100.00;96716.97;5204668;28;20289;-75
2021/01/29 00:18:57;;;;;;;2.17;1.98;;;7.80;99.90;;;8.47;100.00;96711.16;5205324;28;20297;-75
2021/01/29 00:21:29;;;;;;;2.17;2.00;;;7.80;99.90;;;8.50;100.00;96710.44;5204970;28;20237;-75
2021/01/29 00:24:02;;;;;;;2.10;2.00;;;7.70;99.90;;;8.51;100.00;96707.94;5207000;28;20304;-75
2021/01/29 00:26:34;;;;;;;2.22;2.08;;;7.80;99.90;;;8.47;100.00;96706.06;5220040;28;20203;-75
2021/01/29 00:29:06;;;;;;;2.25;2.15;;;7.80;99.90;;;8.47;100.00;96706.06;5223240;28;20228;-73
2021/01/29 00:31:38;;;;;;;1.98;1.88;;;7.80;99.90;;;8.47;100.00;96711.16;5204855;28;20225;-73
2021/01/29 00:34:10;;;;;;;2.50;2.30;;;7.80;99.90;;;8.50;100.00;96705.34;5205099;28;20218;-74
2021/01/29 00:36:43;;;;;;;2.33;2.13;;;7.80;99.90;;;8.67;100.00;96690.81;5204263;28;20234;-73
2021/01/29 00:39:16;;;;;;;2.67;2.47;;;7.80;99.90;;;8.82;100.00;96698.28;5203919;28;20204;-73
2021/01/29 00:41:48;;;;;;;2.78;2.58;;;7.90;99.90;;;8.74;100.00;96692.84;5205009;28;20198;-75
2021/01/29 00:44:20;;;;;;;2.63;2.50;;;7.90;99.90;;;8.63;100.00;96679.59;5217379;28;20221;-75
2021/01/29 00:46:52;;;;;;;2.47;2.38;;;7.90;99.90;;;8.62;100.00;96679.56;5204750;28;20301;-75
2021/01/29 00:49:25;;;;;;;2.55;2.35;;;7.90;99.90;;;8.57;100.00;96677.66;5204063;28;20197;-75
2021/01/29 00:51:57;;;;;;;2.95;2.80;;;7.90;99.90;;;8.61;100.00;96675.25;5204742;28;20224;-73
2021/01/29 00:54:30;;;;;;;2.75;2.55;;;7.90;99.90;;;8.62;100.00;96674.47;5224085;28;20224;-75
2021/01/29 00:57:02;;;;;;;2.65;2.08;;;7.80;99.90;;;8.60;100.00;96674.38;5224910;28;20553;-73
2021/01/29 00:59:34;;;;;;;2.47;2.28;;;7.90;99.90;;;8.64;100.00;96668.66;5220176;28;20251;-75
2021/01/29 01:02:07;;;;;;;2.60;2.40;;;7.90;99.90;;;8.59;100.00;96654.81;5224508;28;20232;-74
2021/01/29 01:04:39;;;;;;;2.30;2.20;;;7.90;99.90;;;8.67;100.00;96648.41;5225417;28;20278;-75
2021/01/29 01:07:11;;;;;;;2.40;2.30;;;8.00;99.90;;;8.72;100.00;96648.59;5220882;28;20206;-75
2021/01/29 01:09:45;;;;;;;2.42;2.33;;;8.00;99.90;;;8.66;100.00;96635.56;5204883;28;20204;-75
2021/01/29 01:12:18;;;;;;;2.30;2.13;;;8.00;99.90;;;8.66;100.00;96635.56;5215689;28;20197;-75
2021/01/29 01:14:50;;;;;;;2.83;2.60;;;8.00;99.90;;;8.65;100.00;96624.53;5216082;28;20300;-75
2021/01/29 01:17:22;;;;;;;2.17;2.08;;;8.00;99.90;;;8.67;100.00;96639.84;5204112;28;20198;-75
2021/01/29 01:19:54;;;;;;;2.90;2.70;;;7.90;99.90;;;8.63;100.00;96630.34;5205059;28;20763;-76
2021/01/29 01:22:27;;;;;;;2.55;2.35;;;7.90;99.90;;;8.57;100.00;96623.31;5207506;28;20201;-75
2021/01/29 01:25:00;;;;;;;2.63;2.42;;;7.90;99.90;;;8.57;100.00;96611.44;5225673;28;20190;-75
2021/01/29 01:27:32;;;;;;;2.58;2.40;;;7.90;99.90;;;8.52;100.00;96607.81;5225954;28;20213;-75
2021/01/29 01:30:07;;;;;;;2.45;2.35;;;7.90;99.90;;;8.66;100.00;96599.91;5213356;28;20198;-76
2021/01/29 01:32:39;;;;;;;2.35;2.25;;;7.90;99.90;;;8.65;100.00;96593.09;5205575;28;20217;-75
2021/01/29 01:35:14;;;;;;;2.22;2.13;;;8.00;99.90;;;8.65;100.00;96588.88;5205264;28;20255;-75
2021/01/29 01:37:47;;;;;;;2.92;2.72;;;8.00;99.90;;;8.75;100.00;96590.13;5212587;28;20271;-75
2021/01/29 01:40:26;;;;;;;3.65;3.35;;;8.00;99.90;;;8.74;100.00;96583.31;5212564;28;20197;-75
2021/01/29 01:42:59;;;;;;;3.60;3.30;;;8.00;99.90;;;8.72;100.00;96579.81;5204646;28;20689;-75
2021/01/29 01:45:56;;;;;;;3.67;3.38;;;8.00;99.90;;;8.68;100.00;96577.94;5217871;28;20201;-75
2021/01/29 01:48:54;;;;;;;2.60;2.40;;;8.00;99.90;;;8.62;100.00;96562.41;5224278;28;20205;-75
2021/01/29 01:51:34;;;;;;;2.45;2.28;;;8.00;99.90;;;8.64;100.00;96555.69;5220987;28;20232;-75
2021/01/29 01:54:18;;;;;;;2.67;2.35;;;8.00;99.90;;;8.78;100.00;96545.31;5222497;28;20218;-75
2021/01/29 01:56:57;;;;;;;2.75;2.63;;;8.10;99.90;;;8.72;100.00;96537.38;5203973;28;20194;-75
2021/01/29 01:59:37;;;;;;;3.10;2.90;;;8.10;99.90;;;8.63;100.00;96524.25;5210117;28;20195;-75
2021/01/29 02:02:12;;;;;;;2.70;2.53;;;8.00;99.90;;;8.60;100.00;96528.34;5223870;28;20201;-75
2021/01/29 02:04:46;;;;;;;2.80;2.60;;;8.00;99.90;;;8.56;100.00;96520.59;5224189;28;20303;-74
2021/01/29 02:07:31;;;;;;;3.05;2.95;;;8.00;99.90;;;8.60;100.00;96524.13;5223724;28;20251;-75
2021/01/29 02:10:06;;;;;;;3.40;3.20;;;7.90;99.90;;;8.65;100.00;96512.47;5226177;28;20661;-74
2021/01/29 02:12:39;;;;;;;3.13;2.92;;;7.90;99.90;;;8.51;100.00;96514.41;5213629;28;20243;-75
2021/01/29 02:15:14;;;;;;;3.10;2.90;;;7.80;99.90;;;8.44;100.00;96506.44;5207188;28;20514;-75
2021/01/29 02:18:04;;;;;;;3.25;3.05;;;7.80;99.90;;;8.44;100.00;96497.16;5207322;28;20198;-75
2021/01/29 02:21:48;;;;;;;3.55;3.25;;;7.80;99.90;;;8.38;100.00;96494.28;5206529;28;20206;-74
2021/01/29 02:25:10;;;;;;;2.70;2.50;;;7.80;99.90;;;8.39;100.00;96493.53;5223775;28;20221;-75
2021/01/29 02:27:51;;;;;;;2.55;2.35;;;7.70;99.90;;;8.39;100.00;96493.53;5215077;28;20285;-74
2021/01/29 02:30:46;;;;;;;3.20;3.00;;;7.80;99.90;;;8.38;100.00;96491.72;5221219;28;20702;-75
2021/01/29 02:34:07;;;;;;;3.10;2.80;;;7.70;99.90;;;8.31;100.00;96490.59;5229882;28;20224;-74
2021/01/29 02:37:29;;;;;;;3.20;3.05;;;7.70;99.90;;;8.28;100.00;96479.44;5229303;28;20193;-75
2021/01/29 02:40:20;;;;;;;3.15;2.95;;;7.60;99.90;;;8.25;100.00;96474.22;5220229;28;20581;-73
2021/01/29 02:43:25;;;;;;;2.57;2.47;;;7.60;99.90;;;8.20;100.00;96461.28;5229606;28;20598;-75
2021/01/29 02:46:09;;;;;;;2.73;2.53;;;7.50;99.90;;;8.18;100.00;96459.47;5226688;28;20636;-73
2021/01/29 02:48:56;;;;;;;2.40;2.30;;;7.50;99.90;;;8.16;100.00;96454.31;5229437;28;20669;-74
2021/01/29 02:51:35;;;;;;;3.03;2.83;;;7.50;99.90;;;8.11;100.00;96451.56;5229776;28;20221;-75
2021/01/29 02:54:14;;;;;;;3.10;2.90;;;7.40;99.90;;;8.09;100.00;96458.25;5224513;28;20631;-75
2021/01/29 02:56:54;;;;;;;3.30;3.10;;;7.40;99.90;;;8.09;100.00;96448.06;5208334;28;20637;-75
2021/01/29 02:59:33;;;;;;;3.40;3.20;;;7.50;99.90;;;8.10;100.00;96434.56;5207878;28;20545;-75
2021/01/29 03:02:13;;;;;;;3.60;3.30;;;7.50;99.90;;;8.12;100.00;96427.84;5208735;28;20280;-75
2021/01/29 03:04:57;;;;;;;2.67;2.58;;;7.40;99.90;;;8.09;100.00;96420.06;5215586;28;20661;-75
2021/01/29 03:07:39;;;;;;;2.80;2.70;;;7.40;99.90;;;8.10;100.00;96423.53;5219552;28;20285;-75
2021/01/29 03:10:19;;;;;;;3.63;3.30;;;7.50;99.90;;;8.11;100.00;96409.97;5227835;28;20236;-74
2021/01/29 03:13:00;;;;;;;3.58;3.30;;;7.50;99.90;;;8.11;100.00;96408.31;5227919;28;20304;-73
2021/01/29 03:15:38;;;;;;;3.03;2.83;;;7.50;99.90;;;8.11;100.00;96400.66;5213774;28;20190;-76
2021/01/29 03:18:19;;;;;;;2.92;2.72;;;7.50;99.90;;;8.18;100.00;96406.00;5208752;28;20573;-75
2021/01/29 03:21:00;;;;;;;3.00;2.80;;;7.60;99.90;;;8.18;100.00;96403.47;5207188;28;20264;-75
2021/01/29 03:23:39;;;;;;;3.25;3.05;;;7.60;99.90;;;8.28;100.00;96411.56;5208274;28;20312;-75
2021/01/29 03:26:18;;;;;;;3.97;3.13;;;7.60;99.90;;;8.25;100.00;96390.22;5217838;28;20198;-75
2021/01/29 03:29:01;;;;;;;2.70;2.50;;;7.70;99.90;;;8.29;100.00;96394.63;5209188;28;20300;-73
2021/01/29 03:31:35;;;;;;;3.50;3.30;;;7.60;99.90;;;8.25;100.00;96392.75;5227360;28;20312;-75
2021/01/29 03:34:13;;;;;;;4.25;3.90;;;7.70;99.90;;;8.25;100.00;96383.44;5224906;28;20213;-75
2021/01/29 03:37:01;;;;;;;4.20;3.90;;;7.60;99.90;;;8.22;100.00;96387.53;5228078;28;20542;-74
2021/01/29 03:39:38;;;;;;;3.60;3.30;;;7.60;99.90;;;8.31;100.00;96380.28;5207109;28;20627;-75
2021/01/29 03:42:26;;;;;;;2.90;2.70;;;7.60;99.90;;;8.21;100.00;96371.41;5206648;28;20201;-76
2021/01/29 03:45:12;;;;;;;2.90;2.70;;;7.60;99.90;;;8.22;100.00;96365.50;5211401;28;20194;-74
2021/01/29 03:47:57;;;;;;;2.93;2.63;;;7.60;99.90;;;8.23;100.00;96362.13;5206887;28;20646;-74
2021/01/29 03:50:46;;;;;;;3.40;2.97;;;7.60;99.90;;;8.25;100.00;96352.91;5224712;28;20380;-75
2021/01/29 03:53:31;;;;;;;2.92;2.72;;;7.70;99.90;;;8.24;100.00;96346.09;5226161;28;20749;-74
2021/01/29 03:56:15;;;;;;;3.10;2.90;;;7.70;99.90;;;8.25;100.00;96346.94;5225887;28;20290;-75
2021/01/29 03:59:00;;;;;;;2.50;2.40;;;7.70;99.90;;;8.38;100.00;96349.16;5225102;28;20208;-75
2021/01/29 04:01:50;;;;;;;2.40;2.27;;;7.80;99.90;;;8.66;100.00;96335.91;5205985;28;20750;-72
2021/01/29 04:04:27;;;;;;;2.03;1.83;;;7.90;99.90;;;8.76;100.00;96317.63;5211034;28;20213;-73
2021/01/29 04:07:16;;;;;;;1.90;1.80;;;8.10;99.90;;;8.71;100.00;96318.28;5223032;28;20247;-75
2021/01/29 04:09:55;;;;;;;1.73;1.70;;;8.10;99.90;;;8.80;100.00;96309.28;5206114;28;20202;-73
2021/01/29 04:12:33;;;;;;;2.10;2.00;;;8.20;99.90;;;8.85;100.00;96327.31;5205636;28;20205;-73
2021/01/29 04:15:14;;;;;;;1.90;1.80;;;8.20;99.90;;;8.95;100.00;96308.13;5216848;28;20279;-74
2021/01/29 04:17:51;;;;;;;1.80;1.65;;;8.40;99.90;;;9.01;100.00;96303.28;5225803;28;20197;-72
2021/01/29 04:20:30;;;;;;;1.73;1.65;;;8.30;99.90;;;8.92;100.00;96313.97;5226014;28;20656;-74
2021/01/29 04:23:08;;;;;;;1.98;1.88;;;8.30;99.90;;;8.90;100.00;96299.44;5226808;28;20248;-72
2021/01/29 04:25:45;;;;;;;1.77;1.67;;;8.30;99.90;;;8.89;100.00;96296.03;5222266;28;20688;-73
2021/01/29 04:28:20;;;;;;;1.77;1.67;;;8.30;99.90;;;8.91;100.00;96288.47;5227454;28;20373;-75
2021/01/29 04:30:58;;;;;;;1.90;1.80;;;8.40;99.90;;;8.83;100.00;96293.25;5208009;28;20328;-73
2021/01/29 04:33:38;;;;;;;2.10;2.00;;;8.30;99.90;;;8.73;100.00;96286.09;5206002;28;20213;-76
2021/01/29 04:36:14;;;;;;;2.20;2.07;;;8.30;99.90;;;8.67;100.00;96280.72;5223984;28;20288;-76
2021/01/29 04:38:50;;;;;;;2.00;1.70;;;8.20;99.90;;;8.61;100.00;96289.00;5209678;28;20588;-75
2021/01/29 04:41:39;;;;;;;2.77;1.80;;;8.20;99.90;;;8.71;100.00;96274.97;5205993;28;20705;-73
2021/01/29 04:44:33;;;;;;;1.90;1.80;;;8.20;99.90;;;8.68;100.00;96267.22;5208347;28;20253;-73
2021/01/29 04:47:20;;;;;;;1.80;1.70;;;8.20;99.90;;;8.72;100.00;96263.97;5225512;28;20229;-74
2021/01/29 04:50:25;;;;;;;2.00;1.90;;;8.20;99.90;;;8.86;100.00;96252.59;5227182;28;20236;-73
2021/01/29 04:53:54;;;;;;;1.80;1.70;;;8.10;99.90;;;8.82;100.00;96245.69;5225289;28;20267;-75
2021/01/29 04:57:04;;;;;;;1.80;1.70;;;8.10;99.90;;;8.70;100.00;96246.09;5205964;28;20220;-74
2021/01/29 04:59:55;;;;;;;2.10;2.00;;;8.10;99.90;;;8.67;100.00;96219.63;5212981;28;20201;-75
2021/01/29 05:03:09;;;;;;;1.98;1.88;;;8.10;99.90;;;8.54;100.00;96214.06;5221810;28;20200;-73
2021/01/29 05:06:25;;;;;;;2.15;2.05;;;8.00;99.90;;;8.50;100.00;96201.19;5225626;28;20189;-73
2021/01/29 05:09:46;;;;;;;2.00;1.90;;;8.00;99.90;;;8.46;100.00;96184.03;5152397;28;20202;-74
2021/01/29 05:13:05;;;;;;;1.95;1.85;;;8.00;99.90;;;8.46;100.00;96178.94;5205502;28;20624;-72
2021/01/29 05:16:25;;;;;;;2.30;2.13;;;8.00;99.90;;;8.54;100.00;96178.41;5220556;28;20197;-71
2021/01/29 05:19:25;;;;;;;2.30;1.83;;;8.00;99.90;;;8.45;100.00;96170.44;5223656;28;20224;-72
2021/01/29 05:22:31;;;;;;;1.70;1.60;;;8.00;99.90;;;8.49;100.00;96159.53;5208168;28;20202;-73
2021/01/29 05:25:29;;;;;;;1.73;1.73;;;8.10;99.90;;;8.44;100.00;96161.09;5197176;28;20200;-73
2021/01/29 05:28:29;;;;;;;1.70;1.60;;;8.00;99.90;;;8.44;100.00;96156.00;5226608;28;20227;-74
2021/01/29 05:31:34;;;;;;;2.50;1.70;;;8.00;99.90;;;8.43;100.00;96151.69;5207385;28;20646;-73
2021/01/29 05:34:36;;;;;;;2.40;2.30;;;8.00;99.90;;;8.40;100.00;96136.28;5210036;28;20224;-73
2021/01/29 05:37:59;;;;;;;2.42;2.30;;;8.00;99.90;;;8.47;100.00;96137.38;5223201;28;20202;-74
2021/01/29 05:41:19;;;;;;;1.90;1.80;;;7.90;99.90;;;8.54;100.00;96122.41;5213887;28;20193;-74
2021/01/29 05:44:29;;;;;;;2.05;1.95;;;8.00;99.90;;;8.51;100.00;96129.06;5213506;28;20678;-73
2021/01/29 05:47:25;;;;;;;2.00;1.90;;;8.00;99.90;;;8.55;100.00;96124.13;5182032;28;20216;-72
2021/01/29 05:50:12;;;;;;;1.85;1.80;;;7.90;99.90;;;8.55;100.00;96134.31;5215371;28;20575;-73
2021/01/29 05:53:12;;;;;;;2.10;1.90;;;7.90;99.90;;;8.52;100.00;96135.88;5228940;28;20311;-73
2021/01/29 05:55:54;;;;;;;2.38;2.17;;;7.90;99.90;;;8.54;100.00;96101.16;5218672;28;20194;-73
2021/01/29 05:59:10;;;;;;;1.83;1.70;;;8.00;99.90;;;8.66;100.00;96086.31;5209143;28;20200;-74
2021/01/29 06:02:25;;;;;;;1.63;1.60;;;8.00;99.90;;;8.80;100.00;96086.81;5226852;28;20296;-73
2021/01/29 06:05:36;;;;;;;1.90;1.80;;;8.10;99.90;;;8.69;100.00;96086.44;5193529;28;20197;-74
2021/01/29 06:08:40;;;;;;;1.73;1.63;;;8.00;99.90;;;8.66;100.00;96081.22;5217857;28;20834;-73
2021/01/29 06:11:31;;;;;;;1.83;1.73;;;8.10;99.90;;;8.55;100.00;96073.19;5201597;28;20228;-73
2021/01/29 06:14:43;;;;;;;2.78;2.58;;;8.00;99.90;;;8.43;100.00;96077.84;5213554;28;20257;-74
2021/01/29 06:18:13;;;;;;;2.75;2.58;;;8.00;99.90;;;8.44;100.00;96078.72;5227621;28;20207;-72
2021/01/29 06:21:25;;;;;;;2.88;2.60;;;8.00;99.90;;;8.50;100.00;96087.47;5192200;28;20205;-73
2021/01/29 06:24:41;;;;;;;2.55;2.35;;;8.00;99.90;;;8.45;100.00;96086.44;5208628;28;20320;-73
2021/01/29 06:28:02;;;;;;;2.50;2.33;;;7.90;99.90;;;8.43;100.00;96090.59;5208421;28;20200;-74
2021/01/29 06:30:55;;;;;;;2.57;2.47;;;7.90;99.90;;;8.43;100.00;96092.28;5205575;28;20229;-75
2021/01/29 06:34:12;;;;;;;2.33;2.13;;;7.90;99.90;;;8.44;100.00;96094.88;5207542;28;20221;-73
2021/01/29 06:37:10;;;;;;;2.20;2.10;;;7.90;99.90;;;8.48;100.00;96106.91;5209105;28;20556;-73
2021/01/29 06:39:58;;;;;;;2.78;2.30;;;7.90;99.90;;;8.46;100.00;96141.63;5224809;28;20204;-73
2021/01/29 06:42:51;;;;;;;2.60;2.50;;;7.90;99.90;;;8.60;100.00;96138.72;5224414;28;20625;-73
2021/01/29 06:45:46;;;;;;;1.90;1.80;;;8.00;99.90;;;8.77;100.00;96145.28;5203614;28;20205;-75
2021/01/29 06:48:50;;;;;;;1.87;1.80;;;8.00;99.90;;;8.79;100.00;96138.56;5203497;28;20248;-73
2021/01/29 06:52:08;;;;;;;1.83;1.73;;;8.10;99.90;;;8.91;100.00;96128.81;5204042;28;20320;-73
2021/01/29 06:55:02;;;;;;;2.10;2.00;;;8.10;99.90;;;8.83;100.00;96132.75;5207261;28;20240;-74
2021/01/29 06:58:17;;;;;;;1.70;1.60;;;8.10;99.90;;;8.85;100.00;96132.84;5223354;28;20233;-75
2021/01/29 07:01:34;;;;;;;1.90;1.80;;;8.20;99.90;;;8.84;100.00;96121.75;5213399;28;20201;-73
2021/01/29 07:04:55;;;;;;;1.85;1.75;;;8.20;99.90;;;8.73;100.00;96139.22;5219600;28;20789;-73
2021/01/29 07:07:48;;;;;;;2.05;1.95;;;8.20;99.90;;;8.67;100.00;96138.13;5217078;28;20249;-73
2021/01/29 07:10:55;;;;;;;2.25;2.15;;;8.20;99.90;;;8.78;100.00;96157.19;5206819;28;20311;-74
2021/01/29 07:14:03;;;;;;;3.00;1.80;;;8.10;99.90;;;8.72;100.00;96156.97;5205315;28;20311;-74
2021/01/29 07:17:08;;;;;;;2.10;1.83;;;8.10;99.90;;;8.71;100.00;96150.16;5199012;28;20209;-74
2021/01/29 07:20:10;;;;;;;1.90;1.80;;;8.10;99.90;;;8.90;100.00;96157.66;5186683;28;20292;-74
2021/01/29 07:23:07;;;;;;;1.93;1.83;;;8.20;99.90;;;8.84;100.00;96164.19;5203062;28;20217;-75
2021/01/29 07:25:57;;;;;;;2.00;1.90;;;8.10;99.90;;;8.83;100.00;96159.94;5203127;28;20292;-73
2021/01/29 07:28:47;;;;;;;1.70;1.60;;;8.10;99.90;;;8.69;99.95;96174.69;5223875;28;20201;-73
2021/01/29 07:31:37;;;;;;;2.10;2.00;;;8.10;99.90;;;8.83;100.00;96170.97;5202669;28;20232;-73
2021/01/29 07:34:24;;;;;;;2.88;2.15;;;8.10;99.90;;;8.83;99.86;96175.22;5216128;28;20708;-73
2021/01/29 07:37:39;;;;;;;2.30;2.10;;;8.10;99.90;;;8.78;99.93;96182.69;5217480;28;20586;-73
2021/01/29 07:40:58;;;;;;;2.37;1.87;;;8.30;99.90;;;8.91;99.66;96178.91;5232149;28;20304;-74
2021/01/29 07:43:53;;;;;;;2.10;2.00;;;8.20;99.90;;;8.82;98.89;96176.91;5205838;28;20715;-74
2021/01/29 07:46:52;;;;;;;2.00;1.90;;;8.20;99.90;;;8.84;99.21;96175.25;5213599;28;20204;-73
2021/01/29 07:49:39;;;;;;;2.30;2.08;;;8.30;99.90;;;8.89;99.12;96180.53;5221656;28;20194;-74
2021/01/29 07:52:28;;;;;;;2.27;2.17;;;8.20;99.90;;;8.93;98.57;96172.19;5206857;28;20228;-74
2021/01/29 07:55:19;;;;;;;2.10;2.00;;;8.30;99.90;;;8.94;97.99;96173.91;5218845;28;20201;-74
2021/01/29 07:58:21;;;;;;;2.40;1.92;;;8.30;99.90;;;8.87;98.27;96157.56;5224189;28;20225;-74
2021/01/29 08:01:30;;;;;;;2.90;2.05;;;8.30;99.90;;;8.86;99.13;96157.50;5205283;28;20558;-74
2021/01/29 08:04:27;;;;;;;2.13;2.03;;;8.20;99.90;;;8.84;98.84;96156.56;5213317;28;20395;-75
2021/01/29 08:07:13;;;;;;;1.90;1.80;;;8.30;99.90;;;8.82;98.21;96160.75;5211985;28;20739;-73
2021/01/29 08:09:52;;;;;;;2.00;1.90;;;8.30;99.90;;;8.87;97.95;96152.47;5209457;28;20197;-73
2021/01/29 08:12:26;;;;;;;2.00;1.90;;;8.30;99.90;;;8.82;97.06;96151.44;5208504;28;20575;-74
2021/01/29 08:15:22;;;;;;;1.95;1.85;;;8.30;99.90;;;8.88;96.75;96158.41;5201117;28;20201;-73
2021/01/29 08:18:47;;;;;;;2.15;2.00;;;8.30;99.90;;;8.99;98.82;96145.25;5202354;28;20244;-74
2021/01/29 08:21:43;;;;;;;2.20;2.10;;;8.30;99.90;;;8.97;97.33;96146.84;5203780;28;20234;-74
2021/01/29 08:24:39;;;;;;;2.22;2.13;;;8.40;99.90;;;9.01;94.80;96148.72;5206422;28;20642;-73
2021/01/29 08:28:04;;;;;;;2.10;2.00;;;8.40;99.90;;;9.07;95.39;96155.72;5216314;28;20224;-73
2021/01/29 08:31:32;;;;;;;2.20;2.10;;;8.50;99.90;;;9.11;95.90;96152.44;5203057;28;20198;-73
2021/01/29 08:34:42;;;;;;;1.90;1.83;;;8.60;99.90;;;8.97;94.35;96148.56;5219180;28;20290;-73
2021/01/29 08:37:32;;;;;;;2.00;1.90;;;8.60;99.90;;;8.96;96.50;96151.91;5211802;28;20407;-74
2021/01/29 08:40:28;;;;;;;2.35;2.25;;;8.50;99.90;;;8.97;96.11;96148.56;5218840;28;20284;-73
2021/01/29 08:43:34;;;;;;;2.40;2.30;;;8.50;99.90;;;9.15;93.66;96154.28;5214389;28;20213;-73
2021/01/29 08:46:32;;;;;;;2.22;2.00;;;8.60;99.90;;;9.29;94.75;96159.00;5211636;28;20204;-74
2021/01/29 08:49:43;;;;;;;2.22;1.75;;;8.70;99.90;;;9.27;94.01;96164.06;5204371;28;20194;-75
2021/01/29 08:52:39;;;;;;;2.03;1.92;;;8.80;99.90;;;9.28;95.64;96150.47;5214890;28;20212;-75
2021/01/29 08:55:27;;;;;;;2.05;1.95;;;8.70;99.90;;;9.27;92.93;96181.00;5222604;28;20257;-73
2021/01/29 08:58:14;;;;;;;2.00;1.90;;;8.90;99.90;;;9.40;94.07;96184.03;5221039;28;20246;-74
2021/01/29 09:00:47;;;;;;;2.25;2.10;;;8.90;99.90;;;9.44;93.30;96180.78;5208911;28;20611;-74
2021/01/29 09:03:28;;;;;;;2.00;1.90;;;8.90;99.90;;;9.34;94.19;96191.47;5220448;28;20224;-74
2021/01/29 09:06:13;;;;;;;2.20;2.00;;;8.90;99.90;;;9.36;94.39;96187.31;5201256;28;20190;-76
2021/01/29 09:08:45;;;;;;;1.92;1.83;;;8.90;99.90;;;9.48;95.62;96192.81;5205360;28;20280;-75
2021/01/29 09:11:25;;;;;;;2.92;2.72;;;8.90;99.90;;;9.47;92.99;96193.66;5221349;28;20205;-75
2021/01/29 09:14:02;;;;;;;2.95;2.75;;;8.90;99.90;;;9.51;94.26;96198.84;5205053;28;20217;-74
2021/01/29 09:16:38;;;;;;;3.75;3.45;;;8.90;99.90;;;9.44;92.98;96208.84;5200980;28;20217;-75
2021/01/29 09:19:16;;;;;;;3.00;2.80;;;8.90;99.90;;;9.41;94.87;96208.75;5216150;28;20215;-74
2021/01/29 09:21:59;;;;;;;2.17;1.98;;;8.90;99.90;;;9.61;93.21;96211.09;5226496;28;20296;-74
2021/01/29 09:24:39;;;;;;;1.92;1.75;;;9.00;99.90;;;9.85;95.06;96201.69;5216146;28;20309;-73
2021/01/29 09:27:47;;;;;;;1.90;1.90;;;9.20;99.90;;;10.04;94.16;96212.50;5205340;28;20578;-74
2021/01/29 09:30:29;;;;;;;2.60;2.40;;;9.50;99.90;;;10.29;94.21;96215.03;5209502;28;20205;-73
2021/01/29 09:33:12;;;;;;;2.10;1.90;;;9.90;99.90;;;10.43;91.33;96222.28;5209507;28;20213;-73
2021/01/29 09:35:56;;;;;;;2.28;2.17;;;10.00;99.90;;;10.58;92.56;96220.19;5220334;28;20193;-74
2021/01/29 09:38:33;;;;;;;2.05;2.00;;;10.10;99.90;;;10.80;87.95;96229.38;5225714;28;20201;-74
2021/01/29 09:41:16;;;;;;;1.85;1.75;;;10.40;99.90;;;10.93;85.68;96228.03;5225567;28;20297;-75
2021/01/29 09:44:02;;;;;;;3.45;2.00;;;10.70;99.90;;;11.14;87.59;96236.31;5226052;28;20712;-74
2021/01/29 09:46:40;;;;;;;2.13;1.92;;;10.90;99.90;;;11.26;85.61;96239.22;5212293;28;20630;-73
2021/01/29 09:49:20;;;;;;;2.17;1.80;;;11.10;99.90;;;11.30;80.65;96240.16;5215006;28;20209;-74
2021/01/29 09:52:13;;;;;;;2.22;2.03;;;11.20;99.90;;;11.50;82.37;96240.72;5205049;28;20564;-74
2021/01/29 09:54:56;;;;;;;3.28;2.33;;;11.30;99.90;;;11.56;83.66;96240.91;5218064;28;20292;-74
2021/01/29 09:57:34;;;;;;;2.40;2.20;;;11.30;99.90;;;11.49;82.48;96251.78;5225151;28;20204;-74
2021/01/29 10:00:15;;;;;;;2.45;2.17;;;11.10;99.90;;;11.33;79.69;96249.63;5225208;28;20683;-74
2021/01/29 10:03:05;;;;;;;1.83;1.73;;;10.90;99.90;;;11.12;78.49;96248.19;5224312;28;20755;-74
2021/01/29 10:05:40;;;;;;;2.83;2.22;;;10.70;99.90;;;11.06;80.42;96258.25;5208976;28;20200;-74
2021/01/29 10:08:19;;;;;;;1.90;1.80;;;10.70;99.90;;;10.92;81.96;96257.84;5214088;28;20201;-74
2021/01/29 10:11:01;;;;;;;2.65;2.10;;;10.40;99.90;;;10.80;79.92;96276.22;5207085;28;20255;-74
2021/01/29 10:14:05;;;;;;;2.75;2.17;;;10.40;99.90;;;10.81;79.21;96280.50;5216473;28;20246;-75
2021/01/29 10:16:45;;;;;;;2.45;1.58;;;10.40;99.90;;;10.80;80.35;96283.03;5228494;28;20204;-74
2021/01/29 10:19:31;;;;;;;2.90;1.83;;;10.40;99.90;;;10.81;80.34;96293.28;5217924;28;20216;-73
2021/01/29 10:22:48;;;;;;;3.42;2.17;;;10.40;99.90;;;10.67;77.41;96293.69;5211225;28;20277;-75
2021/01/29 10:25:39;;;;;;;2.13;1.85;;;10.30;99.90;;;10.78;81.22;96295.75;5210216;28;20194;-73
2021/01/29 10:29:13;;;;;;;2.42;2.22;;;10.40;99.90;;;10.88;84.20;96290.94;5215841;28;20201;-73
2021/01/29 10:31:54;;;;;;;3.10;2.47;;;10.40;99.90;;;10.79;78.51;96289.84;5213017;28;20221;-73
2021/01/29 10:34:34;;;;;;;2.53;1.95;;;10.40;99.90;;;10.84;76.80;96282.28;5206593;28;20236;-74
2021/01/29 10:37:17;;;;;;;3.28;2.47;;;10.40;99.90;;;10.70;76.66;96315.13;5206173;28;20229;-74
2021/01/29 10:40:22;;;;;;;3.90;2.65;;;10.30;99.90;;;10.70;77.90;96302.34;5209270;28;20216;-73
2021/01/29 10:43:05;;;;;;;3.25;2.42;;;10.30;99.90;;;10.57;73.85;96316.41;5221928;28;20633;-73
2021/01/29 10:45:52;;;;;;;3.45;2.00;;;10.30;99.90;;;10.64;78.58;96301.25;5211640;28;20278;-73
2021/01/29 10:48:46;;;;;;;4.65;2.35;;;10.30;99.90;;;10.67;78.01;96325.22;5218676;28;20197;-73
2021/01/29 10:51:35;;;;;;;5.03;2.30;;;10.30;99.90;;;10.60;73.07;96326.72;5221305;28;20288;-73
2021/01/29 10:54:08;;;;;;;3.55;2.50;;;10.20;99.90;;;10.51;72.30;96330.69;5218548;28;20217;-74
2021/01/29 10:56:50;;;;;;;6.78;2.50;;;10.20;99.90;;;10.65;76.66;96328.56;5217177;28;20293;-74
2021/01/29 10:59:29;;;;;;;4.65;2.47;;;10.30;99.90;;;10.81;74.08;96328.22;5206619;28;20205;-73
2021/01/29 11:02:06;;;;;;;4.00;2.33;;;10.40;99.90;;;10.89;73.52;96320.78;5219489;28;20295;-73
2021/01/29 11:04:44;;;;;;;3.13;2.35;;;10.50;99.90;;;10.90;73.69;96327.63;5226619;28;20217;-72
2021/01/29 11:07:23;;;;;;;4.55;2.30;;;10.50;99.90;;;10.92;74.26;96326.00;5214406;28;20229;-73
2021/01/29 11:10:01;;;;;;;4.25;2.33;;;10.50;99.90;;;11.02;75.10;96315.25;5207389;28;20217;-75
2021/01/29 11:12:36;;;;;;;5.03;2.50;;;10.50;99.90;;;11.19;76.94;96316.59;5213972;28;20571;-73
2021/01/29 11:15:20;;;;;;;4.40;2.33;;;10.80;99.90;;;11.20;71.62;96305.53;5219802;28;20732;-73
2021/01/29 11:18:00;;;;;;;2.45;2.25;;;11.00;99.90;;;11.32;73.62;96307.59;5222257;28;20193;-72
2021/01/29 11:20:36;;;;;;;3.25;2.20;;;11.10;99.90;;;11.50;73.19;96302.13;5205056;28;20249;-73
2021/01/29 11:23:24;;;;;;;4.68;2.53;;;11.30;99.90;;;11.69;71.66;96306.94;5218523;28;20227;-74
2021/01/29 11:26:10;;;;;;;3.67;2.60;;;11.40;99.90;;;11.53;66.96;96317.56;5224789;28;20207;-74
2021/01/29 11:29:02;;;;;;;3.63;2.35;;;11.30;99.90;;;11.66;69.57;96293.19;5226019;28;20282;-73
2021/01/29 11:31:44;;;;;;;2.95;2.30;;;11.10;99.90;;;11.63;66.93;96299.09;5213477;28;20573;-72
2021/01/29 11:34:25;;;;;;;3.63;2.40;;;11.00;99.90;;;11.61;67.60;96305.84;5205339;28;20228;-73
2021/01/29 11:37:08;;;;;;;3.58;2.20;;;11.00;99.90;;;11.59;67.83;96310.06;5215592;28;20207;-75
2021/01/29 11:39:45;;;;;;;3.40;1.83;;;10.90;99.90;;;11.41;66.47;96296.75;5226278;28;20287;-73
2021/01/29 11:42:32;;;;;;;4.32;2.45;;;10.80;99.90;;;11.26;68.14;96298.03;5224920;28;20205;-73
2021/01/29 11:45:13;;;;;;;4.35;2.28;;;10.70;99.90;;;11.21;67.83;96314.06;5225387;28;20339;-73
2021/01/29 11:48:00;;;;;;;5.28;2.40;;;10.60;99.90;;;11.18;67.52;96312.28;5225069;28;20276;-74
2021/01/29 11:50:39;;;;;;;3.63;2.60;;;10.60;99.90;;;11.07;68.73;96302.56;5225856;28;20212;-73
2021/01/29 11:53:21;;;;;;;3.80;2.03;;;10.60;99.90;;;11.20;68.16;96308.09;5224935;28;20325;-73
2021/01/29 11:56:00;;;;;;;3.08;2.30;;;10.50;99.90;;;11.24;67.99;96297.13;5224820;28;20659;-73